createdAt,value
2022-07-30T00:00:24.892Z,70.64
2022-07-30T00:03:30.813Z,70.92
2022-07-30T00:06:34.483Z,71.28
2022-07-30T00:09:38.213Z,71.61
2022-07-30T00:12:41.873Z,71.69
2022-07-30T00:15:46.040Z,72.05
2022-07-30T00:18:51.553Z,72.14
2022-07-30T00:21:55.851Z,72.51
2022-07-30T00:24:59.631Z,72.89
2022-07-30T00:28:03.418Z,73.14
2022-07-30T00:31:07.130Z,73.41
2022-07-30T00:34:13.123Z,73.75
2022-07-30T00:37:16.730Z,74.07
2022-07-30T00:40:20.655Z,74.60
2022-07-30T00:43:24.266Z,74.71
2022-07-30T00:46:27.859Z,74.99
2022-07-30T00:49:33.061Z,75.30
2022-07-30T00:52:38.352Z,75.54
2022-07-30T00:55:42.077Z,75.99
2022-07-30T00:58:45.787Z,76.22
2022-07-30T01:01:49.426Z,76.30
2022-07-30T01:04:54.515Z,76.07
2022-07-30T01:07:58.260Z,76.24
2022-07-30T01:11:02.556Z,76.26
2022-07-30T01:14:08.176Z,76.15
2022-07-30T01:17:12.111Z,76.29
2022-07-30T01:20:25.796Z,76.19
2022-07-30T01:23:39.279Z,76.14
2022-07-30T01:26:50.549Z,76.17
2022-07-30T01:29:57.671Z,76.67
2022-07-30T01:33:03.872Z,76.88
2022-07-30T01:36:12.044Z,76.96
2022-07-30T01:39:20.614Z,77.25
2022-07-30T01:42:28.054Z,77.53
2022-07-30T01:45:41.495Z,77.56
2022-07-30T01:48:50.371Z,77.76
2022-07-30T01:51:55.991Z,78.05
2022-07-30T01:55:02.149Z,78.11
2022-07-30T01:58:10.291Z,78.15
2022-07-30T02:01:14.232Z,78.33
2022-07-30T02:04:18.338Z,78.52
2022-07-30T02:07:34.272Z,78.55
2022-07-30T02:10:45.291Z,78.75
2022-07-30T02:13:56.103Z,78.89
2022-07-30T02:17:04.273Z,79.07
2022-07-30T02:20:11.682Z,79.31
2022-07-30T02:23:19.559Z,79.89
2022-07-30T02:26:27.017Z,80.11
2022-07-30T02:29:38.154Z,80.33
2022-07-30T02:32:46.012Z,80.37
2022-07-30T02:35:52.130Z,80.90
2022-07-30T02:38:59.208Z,81.38
2022-07-30T02:42:04.686Z,81.67
2022-07-30T02:45:13.273Z,82.32
2022-07-30T02:48:35.192Z,82.66
2022-07-30T02:51:40.228Z,82.79
2022-07-30T02:54:46.608Z,83.08
2022-07-30T02:57:53.605Z,83.40
2022-07-30T03:01:01.263Z,83.61
2022-07-30T03:04:08.999Z,83.96
2022-07-30T03:07:14.192Z,84.34
2022-07-30T03:10:19.141Z,84.55
2022-07-30T03:13:24.259Z,84.90
2022-07-30T03:16:33.185Z,84.99
2022-07-30T03:19:41.204Z,85.23
2022-07-30T03:22:49.494Z,85.34
2022-07-30T03:26:01.217Z,85.67
2022-07-30T03:29:05.283Z,85.85
2022-07-30T03:32:13.799Z,85.93
2022-07-30T03:35:21.893Z,86.14
2022-07-30T03:38:27.440Z,86.20
2022-07-30T03:41:34.137Z,86.28
2022-07-30T03:44:38.820Z,86.56
2022-07-30T03:47:45.666Z,86.35
2022-07-30T03:50:50.783Z,86.61
2022-07-30T03:53:54.520Z,86.54
2022-07-30T03:56:58.649Z,86.59
2022-07-30T04:00:02.988Z,86.58
2022-07-30T04:03:09.745Z,86.83
2022-07-30T04:06:13.375Z,86.96
2022-07-30T04:09:16.910Z,87.20
2022-07-30T04:12:20.572Z,87.53
2022-07-30T04:16:04.910Z,87.86
2022-07-30T04:18:54.762Z,87.51
2022-07-30T04:22:02.102Z,88.02
2022-07-30T04:25:08.047Z,88.28
2022-07-30T04:28:12.916Z,88.32
2022-07-30T04:31:17.942Z,88.69
2022-07-30T04:34:23.135Z,88.85
2022-07-30T04:37:28.915Z,88.89
2022-07-30T04:40:33.189Z,88.83
2022-07-30T04:43:36.828Z,89.26
2022-07-30T04:46:40.559Z,89.65
2022-07-30T04:49:47.074Z,89.53
2022-07-30T04:52:51.079Z,89.64
2022-07-30T04:55:56.666Z,89.71
2022-07-30T04:59:00.838Z,89.63
2022-07-30T05:02:08.628Z,89.23
2022-07-30T05:05:16.111Z,89.32
2022-07-30T05:08:20.076Z,89.39
2022-07-30T05:11:23.781Z,89.08
2022-07-30T05:14:28.694Z,88.91
2022-07-30T05:17:32.493Z,88.73
2022-07-30T05:20:37.742Z,88.68
2022-07-30T05:23:41.382Z,88.87
2022-07-30T05:26:54.141Z,88.16
2022-07-30T05:29:57.784Z,88.31
2022-07-30T05:33:03.785Z,87.86
2022-07-30T05:36:21.162Z,87.75
2022-07-30T05:39:24.824Z,86.54
2022-07-30T05:42:28.464Z,84.86
2022-07-30T05:45:32.397Z,84.42
2022-07-30T05:48:36.811Z,83.65
2022-07-30T05:51:41.812Z,82.57
2022-07-30T05:54:45.631Z,81.94
2022-07-30T05:57:49.268Z,80.48
2022-07-30T06:00:54.251Z,79.25
2022-07-30T06:03:57.919Z,77.91
2022-07-30T06:07:03.646Z,77.91
2022-07-30T06:10:08.675Z,76.26
2022-07-30T06:13:12.279Z,76.97
2022-07-30T06:16:16.072Z,77.63
2022-07-30T06:19:19.898Z,78.02
2022-07-30T06:22:26.243Z,78.81
2022-07-30T06:25:29.972Z,80.17
2022-07-30T06:28:38.497Z,80.43
2022-07-30T06:31:42.731Z,80.19
2022-07-30T06:34:46.409Z,80.68
2022-07-30T06:38:06.829Z,81.24
2022-07-30T06:41:12.779Z,81.60
2022-07-30T06:44:16.456Z,82.13
2022-07-30T06:47:26.195Z,82.19
2022-07-30T06:50:30.110Z,82.50
2022-07-30T06:53:39.973Z,82.76
2022-07-30T06:56:46.470Z,82.88
2022-07-30T06:59:56.126Z,81.84
2022-07-30T07:03:00.984Z,83.04
2022-07-30T07:06:05.391Z,82.90
2022-07-30T07:09:10.370Z,80.78
2022-07-30T07:12:14.170Z,76.87
2022-07-30T07:15:17.891Z,75.65
2022-07-30T07:18:21.633Z,74.42
2022-07-30T07:21:25.335Z,73.05
2022-07-30T07:24:30.322Z,72.86
2022-07-30T07:27:34.067Z,73.86
2022-07-30T07:30:37.879Z,71.80
2022-07-30T07:33:42.822Z,72.04
2022-07-30T07:36:46.424Z,71.54
2022-07-30T07:39:51.376Z,71.61
2022-07-30T07:42:55.044Z,70.92
2022-07-30T07:45:59.896Z,71.80
2022-07-30T07:49:04.087Z,70.88
2022-07-30T07:52:08.107Z,70.83
2022-07-30T07:55:13.328Z,71.01
2022-07-30T07:58:25.542Z,70.42
2022-07-30T08:01:30.191Z,71.12
2022-07-30T08:04:33.835Z,71.44
2022-07-30T08:07:37.575Z,71.66
2022-07-30T08:10:42.679Z,72.28
2022-07-30T08:13:49.256Z,71.73
2022-07-30T08:16:56.429Z,71.77
2022-07-30T08:20:05.292Z,72.00
2022-07-30T08:23:09.044Z,71.97
2022-07-30T08:26:14.073Z,71.57
2022-07-30T08:29:18.003Z,70.96
2022-07-30T08:32:23.946Z,71.04
2022-07-30T08:35:32.246Z,70.69
2022-07-30T08:38:36.083Z,70.45
2022-07-30T08:41:46.372Z,69.37
2022-07-30T08:44:54.510Z,69.55
2022-07-30T08:48:01.501Z,70.36
2022-07-30T08:51:09.760Z,70.42
2022-07-30T08:54:25.875Z,70.64
2022-07-30T08:57:33.146Z,70.26
2022-07-30T09:00:36.735Z,69.52
2022-07-30T09:03:43.446Z,68.84
2022-07-30T09:06:48.197Z,67.99
2022-07-30T09:09:52.085Z,68.25
2022-07-30T09:12:57.181Z,67.62
2022-07-30T09:16:01.322Z,67.86
2022-07-30T09:19:16.416Z,67.35
2022-07-30T09:22:20.140Z,67.03
2022-07-30T09:25:39.765Z,66.17
2022-07-30T09:28:44.774Z,65.27
2022-07-30T09:31:56.872Z,64.10
2022-07-30T09:35:14.880Z,64.73
2022-07-30T09:38:18.503Z,63.22
2022-07-30T09:41:39.161Z,64.49
2022-07-30T09:44:45.359Z,65.07
2022-07-30T09:47:50.491Z,64.58
2022-07-30T09:50:57.326Z,63.65
2022-07-30T09:54:01.398Z,63.20
2022-07-30T09:57:25.787Z,62.91
2022-07-30T10:00:36.231Z,63.69
2022-07-30T10:03:44.439Z,61.96
2022-07-30T10:06:50.446Z,62.20
2022-07-30T10:09:54.819Z,61.48
2022-07-30T10:13:04.589Z,61.33
2022-07-30T10:16:11.559Z,61.01
2022-07-30T10:19:19.316Z,58.99
2022-07-30T10:22:27.292Z,57.31
2022-07-30T10:25:31.941Z,57.30
2022-07-30T10:28:41.424Z,57.52
2022-07-30T10:31:54.239Z,57.97
2022-07-30T10:34:59.423Z,59.59
2022-07-30T10:38:04.223Z,60.67
2022-07-30T10:41:22.087Z,61.61
2022-07-30T10:45:17.618Z,58.79
2022-07-30T10:48:23.838Z,58.30
2022-07-30T10:51:47.199Z,58.97
2022-07-30T10:54:55.506Z,59.17
2022-07-30T10:58:06.122Z,58.52
2022-07-30T11:01:18.605Z,59.59
2022-07-30T11:04:26.929Z,57.58
2022-07-30T11:07:33.507Z,57.14
2022-07-30T11:10:41.096Z,56.62
2022-07-30T11:13:56.295Z,57.13
2022-07-30T11:17:02.186Z,57.43
2022-07-30T11:20:14.125Z,57.68
2022-07-30T11:23:39.345Z,58.03
2022-07-30T11:26:52.794Z,57.67
2022-07-30T11:29:57.341Z,55.86
2022-07-30T11:33:32.126Z,55.13
2022-07-30T11:36:38.694Z,53.79
2022-07-30T11:40:11.580Z,55.24
2022-07-30T11:43:35.468Z,54.54
2022-07-30T11:46:50.229Z,52.55
2022-07-30T11:49:57.340Z,52.24
2022-07-30T11:53:05.326Z,52.00
2022-07-30T11:56:13.961Z,50.43
2022-07-30T11:59:18.727Z,50.71
2022-07-30T12:02:28.662Z,50.63
2022-07-30T12:05:32.337Z,51.95
2022-07-30T12:08:45.656Z,52.30
2022-07-30T12:11:49.311Z,51.49
2022-07-30T12:14:53.186Z,50.51
2022-07-30T12:18:10.975Z,49.51
2022-07-30T12:21:21.347Z,49.46
2022-07-30T12:24:28.036Z,50.07
2022-07-30T12:27:31.757Z,49.45
2022-07-30T12:30:35.671Z,50.51
2022-07-30T12:33:42.239Z,50.83
2022-07-30T12:36:46.063Z,50.04
2022-07-30T12:40:15.162Z,50.47
2022-07-30T12:43:19.171Z,50.97
2022-07-30T12:46:25.437Z,50.98
2022-07-30T12:49:36.805Z,49.75
2022-07-30T12:52:52.511Z,50.44
2022-07-30T12:56:13.138Z,50.89
2022-07-30T12:59:23.752Z,50.08
2022-07-30T13:02:34.498Z,49.53
2022-07-30T13:05:46.699Z,48.92
2022-07-30T13:08:54.467Z,49.26
2022-07-30T13:11:59.583Z,48.78
2022-07-30T13:15:04.959Z,48.24
2022-07-30T13:18:08.612Z,47.97
2022-07-30T13:21:12.906Z,47.63
2022-07-30T13:24:18.000Z,47.11
2022-07-30T13:27:23.331Z,47.49
2022-07-30T13:30:26.954Z,45.96
2022-07-30T13:33:30.688Z,46.19
2022-07-30T13:36:34.589Z,45.53
2022-07-30T13:39:38.135Z,45.63
2022-07-30T13:42:43.198Z,44.33
2022-07-30T13:45:47.136Z,45.13
2022-07-30T13:48:50.788Z,45.32
2022-07-30T13:51:54.614Z,46.68
2022-07-30T13:54:58.486Z,47.45
2022-07-30T13:58:06.733Z,47.03
2022-07-30T14:01:17.314Z,47.22
2022-07-30T14:04:21.558Z,46.49
2022-07-30T14:07:25.511Z,45.88
2022-07-30T14:10:29.220Z,45.85
2022-07-30T14:13:34.225Z,46.46
2022-07-30T14:16:45.965Z,47.93
2022-07-30T14:19:50.550Z,47.66
2022-07-30T14:22:54.729Z,48.33
2022-07-30T14:25:58.472Z,48.89
2022-07-30T14:29:03.550Z,48.66
2022-07-30T14:32:07.954Z,48.22
2022-07-30T14:35:11.968Z,47.67
2022-07-30T14:38:16.011Z,46.81
2022-07-30T14:41:19.727Z,48.00
2022-07-30T14:44:24.934Z,48.52
2022-07-30T14:47:28.636Z,48.09
2022-07-30T14:50:32.276Z,48.40
2022-07-30T14:53:36.268Z,48.05
2022-07-30T14:56:40.497Z,48.06
2022-07-30T14:59:45.551Z,48.25
2022-07-30T15:02:49.129Z,48.15
2022-07-30T15:05:52.733Z,46.27
2022-07-30T15:08:56.400Z,44.52
2022-07-30T15:12:08.859Z,44.31
2022-07-30T15:15:14.791Z,45.21
2022-07-30T15:18:18.696Z,45.23
2022-07-30T15:21:22.519Z,45.48
2022-07-30T15:24:27.001Z,44.56
2022-07-30T15:27:33.912Z,44.12
2022-07-30T15:30:39.658Z,44.26
2022-07-30T15:33:44.968Z,45.20
2022-07-30T15:36:48.931Z,44.78
2022-07-30T15:39:52.670Z,44.41
2022-07-30T15:42:56.524Z,44.42
2022-07-30T15:46:01.700Z,44.22
2022-07-30T15:49:05.374Z,44.11
2022-07-30T15:52:09.681Z,44.96
2022-07-30T15:55:13.422Z,45.54
2022-07-30T15:58:18.763Z,45.41
2022-07-30T16:01:24.063Z,45.56
2022-07-30T16:04:31.173Z,46.29
2022-07-30T16:07:36.031Z,46.86
2022-07-30T16:10:40.583Z,46.72
2022-07-30T16:13:44.362Z,46.46
2022-07-30T16:16:49.436Z,46.69
2022-07-30T16:19:53.135Z,46.51
2022-07-30T16:22:56.837Z,47.31
2022-07-30T16:26:00.479Z,47.02
2022-07-30T16:29:04.962Z,46.83
2022-07-30T16:32:09.988Z,47.40
2022-07-30T16:35:13.704Z,47.97
2022-07-30T16:38:17.347Z,48.31
2022-07-30T16:41:20.987Z,48.71
2022-07-30T16:44:27.040Z,48.34
2022-07-30T16:47:34.359Z,48.22
2022-07-30T16:50:40.617Z,49.09
2022-07-30T16:53:44.374Z,49.79
2022-07-30T16:56:50.025Z,53.77
2022-07-30T16:59:53.646Z,59.25
2022-07-30T17:02:58.644Z,62.15
2022-07-30T17:06:02.378Z,65.08
2022-07-30T17:09:05.959Z,67.35
2022-07-30T17:12:12.445Z,68.53
2022-07-30T17:15:20.568Z,69.54
2022-07-30T17:18:37.400Z,70.48
2022-07-30T17:21:41.199Z,71.63
2022-07-30T17:24:44.866Z,72.35
2022-07-30T17:27:48.526Z,74.71
2022-07-30T17:30:52.278Z,77.70
2022-07-30T17:33:57.252Z,80.23
2022-07-30T17:37:00.924Z,81.75
2022-07-30T17:40:27.023Z,82.71
2022-07-30T17:43:28.585Z,83.11
2022-07-30T17:46:34.194Z,82.55
2022-07-30T17:49:39.235Z,82.48
2022-07-30T17:52:42.883Z,82.74
2022-07-30T17:55:57.599Z,83.17
2022-07-30T17:59:01.860Z,83.70
2022-07-30T18:02:06.361Z,83.98
2022-07-30T18:05:14.553Z,84.53
2022-07-30T18:08:18.434Z,84.47
2022-07-30T18:11:22.458Z,84.96
2022-07-30T18:14:26.556Z,85.15
2022-07-30T18:17:31.114Z,85.31
2022-07-30T18:20:36.538Z,85.33
2022-07-30T18:23:52.176Z,86.02
2022-07-30T18:26:55.822Z,86.16
2022-07-30T18:29:59.462Z,86.26
2022-07-30T18:33:03.069Z,86.12
2022-07-30T18:36:08.313Z,85.95
2022-07-30T18:39:12.403Z,85.71
2022-07-30T18:42:16.098Z,85.61
2022-07-30T18:45:19.759Z,85.34
2022-07-30T18:48:23.567Z,85.02
2022-07-30T18:51:28.615Z,84.62
2022-07-30T18:54:32.350Z,84.19
2022-07-30T18:57:36.134Z,84.16
2022-07-30T19:00:43.260Z,83.88
2022-07-30T19:03:47.538Z,83.83
2022-07-30T19:06:52.707Z,83.76
2022-07-30T19:09:58.402Z,83.25
2022-07-30T19:13:03.441Z,83.24
2022-07-30T19:16:07.452Z,83.49
2022-07-30T19:19:12.863Z,83.41
2022-07-30T19:22:18.878Z,83.59
2022-07-30T19:25:35.720Z,84.05
2022-07-30T19:28:39.335Z,84.15
2022-07-30T19:31:43.043Z,84.21
2022-07-30T19:34:46.812Z,84.14
2022-07-30T19:37:51.822Z,84.13
2022-07-30T19:40:55.459Z,84.50
2022-07-30T19:44:00.352Z,84.94
2022-07-30T19:47:04.156Z,85.25
2022-07-30T19:50:11.377Z,85.38
2022-07-30T19:53:16.625Z,85.63
2022-07-30T19:56:20.547Z,85.50
2022-07-30T19:59:45.801Z,85.88
2022-07-30T20:02:51.702Z,86.26
2022-07-30T20:05:58.789Z,86.83
2022-07-30T20:09:05.418Z,87.09
2022-07-30T20:12:17.832Z,87.62
2022-07-30T20:15:21.475Z,87.96
2022-07-30T20:18:29.078Z,88.51
2022-07-30T20:21:57.423Z,88.89
2022-07-30T20:24:59.519Z,89.41
2022-07-30T20:28:03.315Z,89.73
2022-07-30T20:31:07.057Z,89.95
2022-07-30T20:34:16.328Z,89.78
2022-07-30T20:37:22.498Z,89.66
2022-07-30T20:40:27.762Z,89.40
2022-07-30T20:43:31.553Z,88.90
2022-07-30T20:46:36.459Z,88.66
2022-07-30T20:49:41.615Z,88.16
2022-07-30T20:52:47.010Z,88.07
2022-07-30T20:55:53.344Z,87.82
2022-07-30T20:58:57.804Z,87.46
2022-07-30T21:02:03.753Z,87.07
2022-07-30T21:05:08.620Z,86.98
2022-07-30T21:08:17.528Z,87.18
2022-07-30T21:11:22.594Z,87.15
2022-07-30T21:14:26.689Z,86.96
2022-07-30T21:17:30.347Z,87.29
2022-07-30T21:20:34.097Z,87.21
2022-07-30T21:23:37.863Z,87.28
2022-07-30T21:26:43.719Z,87.40
2022-07-30T21:29:47.924Z,87.53
2022-07-30T21:32:51.673Z,87.60
2022-07-30T21:35:55.282Z,87.79
2022-07-30T21:38:59.104Z,87.64
2022-07-30T21:42:04.559Z,87.91
2022-07-30T21:45:09.998Z,87.96
2022-07-30T21:48:14.492Z,87.93
2022-07-30T21:51:18.404Z,87.57
2022-07-30T21:54:28.830Z,87.61
2022-07-30T21:57:34.560Z,87.50
2022-07-30T22:01:00.906Z,87.50
2022-07-30T22:04:21.305Z,87.42
2022-07-30T22:07:24.868Z,87.52
2022-07-30T22:10:30.316Z,87.50
2022-07-30T22:13:35.299Z,87.62
2022-07-30T22:16:55.495Z,87.57
2022-07-30T22:19:59.147Z,87.31
2022-07-30T22:23:05.978Z,87.34
2022-07-30T22:26:09.676Z,87.25
2022-07-30T22:29:14.780Z,87.46
2022-07-30T22:32:18.372Z,87.45
2022-07-30T22:35:32.470Z,87.28
2022-07-30T22:38:37.607Z,87.83
2022-07-30T22:41:41.336Z,87.94
2022-07-30T22:44:47.580Z,88.11
2022-07-30T22:47:55.607Z,88.32
2022-07-30T22:50:59.791Z,88.22
2022-07-30T22:54:12.677Z,88.42
2022-07-30T22:57:16.835Z,88.45
2022-07-30T23:00:28.739Z,88.29
2022-07-30T23:03:32.360Z,88.29
2022-07-30T23:06:36.035Z,88.40
2022-07-30T23:12:33.794Z,88.32
2022-07-30T23:13:03.268Z,88.40
2022-07-30T23:16:08.322Z,88.34
2022-07-30T23:19:16.208Z,88.44
2022-07-30T23:22:26.103Z,88.10
2022-07-30T23:25:38.412Z,88.05
2022-07-30T23:28:42.988Z,88.02
2022-07-30T23:31:47.963Z,87.96
2022-07-30T23:34:51.712Z,87.68
2022-07-30T23:37:55.325Z,87.85
2022-07-30T23:41:01.353Z,87.69
2022-07-30T23:44:05.276Z,87.62
2022-07-30T23:47:10.370Z,87.57
2022-07-30T23:50:14.021Z,87.89
2022-07-30T23:53:17.798Z,87.85
2022-07-30T23:56:21.827Z,87.64
2022-07-30T23:59:36.894Z,87.66
